Time;durP1;ratioP1;P1;durP2;ratioP2;P2;SDS_P1;SDS_P2;PMS_P1;PMS_P2;Temp;Humidity;BMP_temperature;BMP_pressure;BME280_temperature;BME280_humidity;BME280_pressure;Samples;Min_cycle;Max_cycle;Signal;HPM_P1;HPM_P2
2023/03/11 00:01:41;;;;;;;;;;;;;;;;;;5032081;28;20001;-63
2023/03/11 00:04:08;;;;;;;;;;;;;;;;;;5031443;28;20009;-63
2023/03/11 00:06:35;;;;;;;;;;;;;;;;;;5032156;28;20387;-63
2023/03/11 00:09:02;;;;;;;;;;;;;;;;;;5032521;28;20009;-63
2023/03/11 00:11:29;;;;;;;;;;;;;;;;;;5029669;28;20002;-63
2023/03/11 00:13:56;;;;;;;;;;;;;;;;;;5032318;28;20021;-63
2023/03/11 00:16:23;;;;;;;;;;;;;;;;;;5032172;28;20025;-62
2023/03/11 00:18:50;;;;;;;;;;;;;;;;;;5031719;28;20018;-63
2023/03/11 00:21:17;;;;;;;;;;;;;;;;;;5030579;28;20006;-63
2023/03/11 00:23:44;;;;;;;;;;;;;;;;;;5029698;28;19994;-63
2023/03/11 00:26:11;;;;;;;;;;;;;;;;;;5032847;28;20462;-63
2023/03/11 00:28:37;;;;;;;;;;;;;;;;;;5036209;28;20022;-63
2023/03/11 00:31:04;;;;;;;;;;;;;;;;;;5033330;28;19994;-63
2023/03/11 00:33:31;;;;;;;;;;;;;;;;;;5036007;28;20386;-63
2023/03/11 00:35:58;;;;;;;;;;;;;;;;;;5034422;28;20031;-63
2023/03/11 00:38:25;;;;;;;;;;;;;;;;;;5033556;28;20360;-63
2023/03/11 00:40:52;;;;;;;;;;;;;;;;;;5034096;28;19994;-63
2023/03/11 00:43:19;;;;;;;;;;;;;;;;;;5030727;28;19998;-63
2023/03/11 00:45:46;;;;;;;;;;;;;;;;;;5032393;28;19998;-63
2023/03/11 00:48:13;;;;;;;;;;;;;;;;;;5035789;28;20029;-63
2023/03/11 00:50:39;;;;;;;;;;;;;;;;;;5035436;28;20463;-63
2023/03/11 00:53:06;;;;;;;;;;;;;;;;;;5035176;28;20009;-63
2023/03/11 00:55:33;;;;;;;;;;;;;;;;;;5035862;28;20009;-63
2023/03/11 00:58:00;;;;;;;;;;;;;;;;;;5033586;28;20481;-63
2023/03/11 01:00:27;;;;;;;;;;;;;;;;;;5035527;28;20006;-63
2023/03/11 01:02:54;;;;;;;;;;;;;;;;;;5035065;28;20002;-63
2023/03/11 01:05:21;;;;;;;;;;;;;;;;;;5035711;28;20002;-63
2023/03/11 01:07:48;;;;;;;;;;;;;;;;;;5034911;28;20018;-63
2023/03/11 01:10:15;;;;;;;;;;;;;;;;;;5035592;28;20005;-63
2023/03/11 01:12:42;;;;;;;;;;;;;;;;;;5034993;28;20081;-63
2023/03/11 01:15:08;;;;;;;;;;;;;;;;;;5030877;28;20483;-63
2023/03/11 01:17:35;;;;;;;;;;;;;;;;;;5035617;28;20025;-63
2023/03/11 01:20:05;;;;;;;;;;;;;;;;;;5034997;28;20013;-62
2023/03/11 01:22:33;;;;;;;;;;;;;;;;;;5034322;28;20009;-62
2023/03/11 01:25:00;;;;;;;;;;;;;;;;;;5032907;28;19998;-63
2023/03/11 01:27:27;;;;;;;;;;;;;;;;;;5035007;28;20018;-62
2023/03/11 01:29:54;;;;;;;;;;;;;;;;;;5032651;28;19993;-62
2023/03/11 01:32:21;;;;;;;;;;;;;;;;;;5033263;28;19997;-62
2023/03/11 01:34:48;;;;;;;;;;;;;;;;;;5034978;28;20021;-62
2023/03/11 01:37:15;;;;;;;;;;;;;;;;;;5033873;28;20018;-63
2023/03/11 01:39:42;;;;;;;;;;;;;;;;;;5032773;28;19998;-62
2023/03/11 01:42:08;;;;;;;;;;;;;;;;;;5034445;28;20002;-62
2023/03/11 01:44:35;;;;;;;;;;;;;;;;;;5032597;28;20005;-63
2023/03/11 01:47:02;;;;;;;;;;;;;;;;;;5029930;28;20018;-63
2023/03/11 01:49:29;;;;;;;;;;;;;;;;;;5034889;28;20025;-63
2023/03/11 01:51:56;;;;;;;;;;;;;;;;;;5031600;28;19994;-63
2023/03/11 01:54:23;;;;;;;;;;;;;;;;;;5034569;28;20040;-63
2023/03/11 01:56:50;;;;;;;;;;;;;;;;;;5029532;28;20018;-63
2023/03/11 01:59:18;;;;;;;;;;;;;;;;;;5030739;28;20452;-63
2023/03/11 02:01:45;;;;;;;;;;;;;;;;;;5029546;28;19994;-63
2023/03/11 02:04:11;;;;;;;;;;;;;;;;;;5034576;28;20006;-63
2023/03/11 02:06:38;;;;;;;;;;;;;;;;;;5033878;28;20128;-63
2023/03/11 02:09:05;;;;;;;;;;;;;;;;;;5031890;28;20005;-63
2023/03/11 02:11:32;;;;;;;;;;;;;;;;;;5033606;28;20459;-63
2023/03/11 02:13:59;;;;;;;;;;;;;;;;;;5034256;28;20018;-63
2023/03/11 02:16:26;;;;;;;;;;;;;;;;;;5033731;28;20001;-63
2023/03/11 02:18:53;;;;;;;;;;;;;;;;;;5032218;28;19998;-63
2023/03/11 02:21:20;;;;;;;;;;;;;;;;;;5033981;28;20009;-63
2023/03/11 02:23:47;;;;;;;;;;;;;;;;;;5032153;28;20009;-63
2023/03/11 02:26:14;;;;;;;;;;;;;;;;;;5033566;28;20002;-63
2023/03/11 02:28:41;;;;;;;;;;;;;;;;;;5033965;28;20018;-63
2023/03/11 02:31:08;;;;;;;;;;;;;;;;;;5034032;28;20002;-63
2023/03/11 02:33:34;;;;;;;;;;;;;;;;;;5031148;28;20024;-63
2023/03/11 02:36:01;;;;;;;;;;;;;;;;;;5033959;28;20462;-63
2023/03/11 02:38:28;;;;;;;;;;;;;;;;;;5031909;28;20022;-63
2023/03/11 02:40:55;;;;;;;;;;;;;;;;;;5033967;28;20002;-63
2023/03/11 02:43:22;;;;;;;;;;;;;;;;;;5033670;28;20092;-63
2023/03/11 02:45:49;;;;;;;;;;;;;;;;;;5031511;28;19998;-62
2023/03/11 02:48:16;;;;;;;;;;;;;;;;;;5033268;28;20026;-62
2023/03/11 02:50:43;;;;;;;;;;;;;;;;;;5030152;28;20001;-62
2023/03/11 02:53:10;;;;;;;;;;;;;;;;;;5033473;28;20009;-62
2023/03/11 02:55:37;;;;;;;;;;;;;;;;;;5033331;28;20391;-62
2023/03/11 02:58:04;;;;;;;;;;;;;;;;;;5033161;28;20026;-63
2023/03/11 03:00:31;;;;;;;;;;;;;;;;;;5033505;28;20459;-62
2023/03/11 03:02:57;;;;;;;;;;;;;;;;;;5031370;28;20002;-62
2023/03/11 03:05:24;;;;;;;;;;;;;;;;;;5031211;28;20002;-62
2023/03/11 03:07:51;;;;;;;;;;;;;;;;;;5033179;28;20017;-62
2023/03/11 03:10:18;;;;;;;;;;;;;;;;;;5033233;28;20006;-62
2023/03/11 03:12:45;;;;;;;;;;;;;;;;;;5030832;28;20341;-62
2023/03/11 03:15:14;;;;;;;;;;;;;;;;;;5027948;28;20006;-62
2023/03/11 03:17:41;;;;;;;;;;;;;;;;;;5032711;28;20208;-62
2023/03/11 03:20:11;;;;;;;;;;;;;;;;;;5028572;28;20375;-62
2023/03/11 03:22:38;;;;;;;;;;;;;;;;;;5030925;28;20470;-62
2023/03/11 03:25:05;;;;;;;;;;;;;;;;;;5033073;28;20009;-62
2023/03/11 03:27:32;;;;;;;;;;;;;;;;;;5030796;28;20014;-62
2023/03/11 03:29:59;;;;;;;;;;;;;;;;;;5030870;28;20384;-63
2023/03/11 03:32:25;;;;;;;;;;;;;;;;;;5032429;28;20009;-62
2023/03/11 03:34:57;;;;;;;;;;;;;;;;;;5032604;28;20368;-62
2023/03/11 03:37:24;;;;;;;;;;;;;;;;;;5030707;28;20387;-62
2023/03/11 03:39:50;;;;;;;;;;;;;;;;;;5012167;28;20009;-62
2023/03/11 03:42:18;;;;;;;;;;;;;;;;;;5012542;28;20460;-62
2023/03/11 03:44:45;;;;;;;;;;;;;;;;;;5012771;28;20010;-62
2023/03/11 03:47:12;;;;;;;;;;;;;;;;;;5012494;28;20025;-62
2023/03/11 03:49:38;;;;;;;;;;;;;;;;;;5013133;28;20353;-62
2023/03/11 03:52:05;;;;;;;;;;;;;;;;;;5021711;28;20005;-62
2023/03/11 03:54:32;;;;;;;;;;;;;;;;;;5032169;28;20018;-62
2023/03/11 03:56:59;;;;;;;;;;;;;;;;;;5031399;28;20387;-62
2023/03/11 03:59:26;;;;;;;;;;;;;;;;;;5031514;28;20009;-62
2023/03/11 04:01:53;;;;;;;;;;;;;;;;;;5023152;28;20379;-62
2023/03/11 04:04:20;;;;;;;;;;;;;;;;;;5021765;28;20005;-62
2023/03/11 04:06:47;;;;;;;;;;;;;;;;;;5032346;28;20021;-63
2023/03/11 04:09:14;;;;;;;;;;;;;;;;;;5032363;28;19998;-62
2023/03/11 04:11:40;;;;;;;;;;;;;;;;;;5031148;28;20009;-62
2023/03/11 04:14:07;;;;;;;;;;;;;;;;;;5031319;28;20014;-62
2023/03/11 04:16:34;;;;;;;;;;;;;;;;;;5032239;28;20002;-62
2023/03/11 04:19:01;;;;;;;;;;;;;;;;;;5032121;28;20002;-62
2023/03/11 04:21:28;;;;;;;;;;;;;;;;;;5031589;28;20002;-63
2023/03/11 04:23:55;;;;;;;;;;;;;;;;;;5032258;28;20009;-63
2023/03/11 04:26:22;;;;;;;;;;;;;;;;;;5029045;28;20005;-63
2023/03/11 04:28:49;;;;;;;;;;;;;;;;;;5032393;28;20025;-63
2023/03/11 04:31:16;;;;;;;;;;;;;;;;;;5030023;28;20006;-63
2023/03/11 04:33:43;;;;;;;;;;;;;;;;;;5031926;28;20056;-63
2023/03/11 04:36:09;;;;;;;;;;;;;;;;;;5031778;28;20018;-64
2023/03/11 04:38:36;;;;;;;;;;;;;;;;;;5031949;28;20024;-63
2023/03/11 04:41:03;;;;;;;;;;;;;;;;;;5031543;28;20352;-63
2023/03/11 04:43:30;;;;;;;;;;;;;;;;;;5030166;28;20005;-63
2023/03/11 04:45:57;;;;;;;;;;;;;;;;;;5031985;28;20483;-63
2023/03/11 04:48:25;;;;;;;;;;;;;;;;;;5057805;22;20018;-62
2023/03/11 04:50:52;;;;;;;;;;;;;;;;;;5050470;28;20091;-62
2023/03/11 04:53:19;;;;;;;;;;;;;;;;;;5050052;28;20013;-62
2023/03/11 04:55:47;;;;;;;;;;;;;;;;;;5051041;28;20017;-62
2023/03/11 04:58:13;;;;;;;;;;;;;;;;;;5048735;28;20056;-62
2023/03/11 05:00:40;;;;;;;;;;;;;;;;;;5050875;28;20008;-62
2023/03/11 05:03:07;;;;;;;;;;;;;;;;;;5050323;28;20005;-62
2023/03/11 05:05:34;;;;;;;;;;;;;;;;;;5050656;28;20002;-62
2023/03/11 05:08:01;;;;;;;;;;;;;;;;;;5050202;28;20017;-62
2023/03/11 05:10:28;;;;;;;;;;;;;;;;;;5050367;28;20367;-62
2023/03/11 05:12:55;;;;;;;;;;;;;;;;;;5050071;28;19998;-63
2023/03/11 05:15:22;;;;;;;;;;;;;;;;;;5054342;28;20014;-63
2023/03/11 05:17:49;;;;;;;;;;;;;;;;;;5052096;28;20022;-63
2023/03/11 05:20:16;;;;;;;;;;;;;;;;;;5048675;28;20001;-62
2023/03/11 05:22:43;;;;;;;;;;;;;;;;;;5033975;28;20367;-62
2023/03/11 05:25:09;;;;;;;;;;;;;;;;;;5034062;28;20013;-62
2023/03/11 05:27:36;;;;;;;;;;;;;;;;;;5046223;28;20013;-63
2023/03/11 05:30:03;;;;;;;;;;;;;;;;;;5048580;28;19998;-63
2023/03/11 05:32:30;;;;;;;;;;;;;;;;;;5052345;28;20024;-62
2023/03/11 05:34:57;;;;;;;;;;;;;;;;;;5053231;28;20020;-62
2023/03/11 05:37:24;;;;;;;;;;;;;;;;;;5051500;28;20023;-62
2023/03/11 05:39:51;;;;;;;;;;;;;;;;;;5052337;28;19997;-62
2023/03/11 05:42:18;;;;;;;;;;;;;;;;;;5053568;28;20024;-63
2023/03/11 05:44:45;;;;;;;;;;;;;;;;;;5053209;28;20002;-62
2023/03/11 05:47:12;;;;;;;;;;;;;;;;;;5013086;28;1038664;-62
2023/03/11 05:49:38;;;;;;;;;;;;;;;;;;5054675;28;20001;-62
2023/03/11 05:52:05;;;;;;;;;;;;;;;;;;5054172;28;20459;-63
2023/03/11 05:54:32;;;;;;;;;;;;;;;;;;5053941;28;20001;-62
2023/03/11 05:56:59;;;;;;;;;;;;;;;;;;5054454;28;20459;-63
2023/03/11 05:59:26;;;;;;;;;;;;;;;;;;5052601;28;19997;-63
2023/03/11 06:01:53;;;;;;;;;;;;;;;;;;5052507;28;20001;-63
2023/03/11 06:04:20;;;;;;;;;;;;;;;;;;5054447;28;20001;-63
2023/03/11 06:06:47;;;;;;;;;;;;;;;;;;5054335;28;20024;-62
2023/03/11 06:09:14;;;;;;;;;;;;;;;;;;5054067;28;20089;-63
2023/03/11 06:11:41;;;;;;;;;;;;;;;;;;5035845;28;20358;-63
2023/03/11 06:14:08;;;;;;;;;;;;;;;;;;5033824;28;20001;-63
2023/03/11 06:16:34;;;;;;;;;;;;;;;;;;5034173;28;20025;-63
2023/03/11 06:19:01;;;;;;;;;;;;;;;;;;5034304;28;20021;-63
2023/03/11 06:21:28;;;;;;;;;;;;;;;;;;5034019;28;20002;-63
2023/03/11 06:23:55;;;;;;;;;;;;;;;;;;5033710;28;20002;-63
2023/03/11 06:26:22;;;;;;;;;;;;;;;;;;5033797;28;20011;-63
2023/03/11 06:28:49;;;;;;;;;;;;;;;;;;5033978;28;20018;-63
2023/03/11 06:31:16;;;;;;;;;;;;;;;;;;5036176;28;20024;-63
2023/03/11 06:33:43;;;;;;;;;;;;;;;;;;5051875;28;19994;-63
2023/03/11 06:36:10;;;;;;;;;;;;;;;;;;5053672;28;20029;-64
2023/03/11 06:38:36;;;;;;;;;;;;;;;;;;5053618;28;20018;-63
2023/03/11 06:41:03;;;;;;;;;;;;;;;;;;5053446;28;20023;-61
2023/03/11 06:43:31;;;;;;;;;;;;;;;;;;5050638;28;20065;-61
2023/03/11 06:45:58;;;;;;;;;;;;;;;;;;5053122;28;20409;-62
2023/03/11 06:48:24;;;;;;;;;;;;;;;;;;5053350;28;20094;-60
2023/03/11 06:50:51;;;;;;;;;;;;;;;;;;5051925;28;20467;-61
2023/03/11 06:53:18;;;;;;;;;;;;;;;;;;5053157;28;20008;-61
2023/03/11 06:55:45;;;;;;;;;;;;;;;;;;5053318;28;20475;-62
2023/03/11 06:58:12;;;;;;;;;;;;;;;;;;5052895;28;20022;-61
2023/03/11 07:00:39;;;;;;;;;;;;;;;;;;5053373;28;20006;-60
2023/03/11 07:03:06;;;;;;;;;;;;;;;;;;5044901;28;19993;-61
2023/03/11 07:05:33;;;;;;;;;;;;;;;;;;5047273;28;20367;-61
2023/03/11 07:08:00;;;;;;;;;;;;;;;;;;5045262;28;20013;-61
2023/03/11 07:10:27;;;;;;;;;;;;;;;;;;5050527;28;20020;-61
2023/03/11 07:12:54;;;;;;;;;;;;;;;;;;5047772;28;20081;-61
2023/03/11 07:15:21;;;;;;;;;;;;;;;;;;5046693;28;20014;-61
2023/03/11 07:17:48;;;;;;;;;;;;;;;;;;5052323;28;20014;-61
2023/03/11 07:20:15;;;;;;;;;;;;;;;;;;5051777;28;20034;-61
2023/03/11 07:22:42;;;;;;;;;;;;;;;;;;5052228;28;20016;-61
2023/03/11 07:25:09;;;;;;;;;;;;;;;;;;5048622;28;20395;-61
2023/03/11 07:27:36;;;;;;;;;;;;;;;;;;5052173;28;20017;-61
2023/03/11 07:30:02;;;;;;;;;;;;;;;;;;5053134;28;20001;-61
2023/03/11 07:32:29;;;;;;;;;;;;;;;;;;5053456;28;20002;-61
2023/03/11 07:34:56;;;;;;;;;;;;;;;;;;5045713;28;19998;-61
2023/03/11 07:37:23;;;;;;;;;;;;;;;;;;5049255;28;20009;-64
2023/03/11 07:39:50;;;;;;;;;;;;;;;;;;5052122;28;20001;-61
2023/03/11 07:42:17;;;;;;;;;;;;;;;;;;5056873;28;19997;-61
2023/03/11 07:44:44;;;;;;;;;;;;;;;;;;5051581;28;20000;-61
2023/03/11 07:47:11;;;;;;;;;;;;;;;;;;5049264;28;20035;-61
2023/03/11 07:49:38;;;;;;;;;;;;;;;;;;5066414;28;20459;-61
2023/03/11 07:52:05;;;;;;;;;;;;;;;;;;5045359;28;19993;-62
2023/03/11 07:54:32;;;;;;;;;;;;;;;;;;5050507;28;20005;-62
2023/03/11 07:56:59;;;;;;;;;;;;;;;;;;5052160;28;20010;-61
2023/03/11 07:59:26;;;;;;;;;;;;;;;;;;5062973;28;19997;-61
2023/03/11 08:01:53;;;;;;;;;;;;;;;;;;5050209;28;20001;-61
2023/03/11 08:04:19;;;;;;;;;;;;;;;;;;5042601;28;20002;-63
2023/03/11 08:06:46;;;;;;;;;;;;;;;;;;5049100;28;19993;-63
2023/03/11 08:09:13;;;;;;;;;;;;;;;;;;5046987;28;20390;-63
2023/03/11 08:11:40;;;;;;;;;;;;;;;;;;5038423;28;20048;-63
2023/03/11 08:14:07;;;;;;;;;;;;;;;;;;5049489;28;20020;-63
2023/03/11 08:16:34;;;;;;;;;;;;;;;;;;5058235;28;20060;-63
2023/03/11 08:19:01;;;;;;;;;;;;;;;;;;5053974;28;20014;-63
2023/03/11 08:21:30;;;;;;;;;;;;;;;;;;5049943;28;20362;-63
2023/03/11 08:23:57;;;;;;;;;;;;;;;;;;5059777;28;20545;-63
2023/03/11 08:26:24;;;;;;;;;;;;;;;;;;5066450;28;20006;-62
2023/03/11 08:28:51;;;;;;;;;;;;;;;;;;5040798;28;20016;-63
2023/03/11 08:31:18;;;;;;;;;;;;;;;;;;5042573;28;19998;-63
2023/03/11 08:33:45;;;;;;;;;;;;;;;;;;5034094;28;19994;-63
2023/03/11 08:36:12;;;;;;;;;;;;;;;;;;5050593;28;20363;-62
2023/03/11 08:38:39;;;;;;;;;;;;;;;;;;5045566;28;20009;-63
2023/03/11 08:41:06;;;;;;;;;;;;;;;;;;5040080;28;20421;-63
2023/03/11 08:43:32;;;;;;;;;;;;;;;;;;5045478;28;20450;-62
2023/03/11 08:45:59;;;;;;;;;;;;;;;;;;5048571;28;19997;-63
2023/03/11 08:48:26;;;;;;;;;;;;;;;;;;5054916;28;20017;-63
2023/03/11 08:50:53;;;;;;;;;;;;;;;;;;5052949;28;20401;-63
2023/03/11 08:53:20;;;;;;;;;;;;;;;;;;5053444;28;20001;-63
2023/03/11 08:55:47;;;;;;;;;;;;;;;;;;5051982;28;20040;-63
2023/03/11 08:58:14;;;;;;;;;;;;;;;;;;5048668;28;20010;-63
2023/03/11 09:00:41;;;;;;;;;;;;;;;;;;5048338;28;19997;-61
2023/03/11 09:03:08;;;;;;;;;;;;;;;;;;5048496;28;20455;-61
2023/03/11 09:05:35;;;;;;;;;;;;;;;;;;5051970;28;19998;-65
2023/03/11 09:08:03;;;;;;;;;;;;;;;;;;5038446;28;20013;-61
2023/03/11 09:10:30;;;;;;;;;;;;;;;;;;5048758;28;19998;-63
2023/03/11 09:12:57;;;;;;;;;;;;;;;;;;5053642;28;20081;-61
2023/03/11 09:15:24;;;;;;;;;;;;;;;;;;5039876;28;20000;-63
2023/03/11 09:17:51;;;;;;;;;;;;;;;;;;5053937;28;20060;-62
2023/03/11 09:20:18;;;;;;;;;;;;;;;;;;5048665;28;21331;-61
2023/03/11 09:22:45;;;;;;;;;;;;;;;;;;5044908;28;20002;-61
2023/03/11 09:25:12;;;;;;;;;;;;;;;;;;5045304;28;20020;-61
2023/03/11 09:27:40;;;;;;;;;;;;;;;;;;5050749;28;20398;-62
2023/03/11 09:30:07;;;;;;;;;;;;;;;;;;5050318;28;20002;-62
2023/03/11 09:32:34;;;;;;;;;;;;;;;;;;5044732;28;20348;-61
2023/03/11 09:35:00;;;;;;;;;;;;;;;;;;5043477;28;20356;-61
2023/03/11 09:37:29;;;;;;;;;;;;;;;;;;5047356;28;20398;-61
2023/03/11 09:39:55;;;;;;;;;;;;;;;;;;5045929;28;20455;-61
2023/03/11 09:42:22;;;;;;;;;;;;;;;;;;5039528;28;20002;-62
2023/03/11 09:44:49;;;;;;;;;;;;;;;;;;5046163;28;19994;-61
2023/03/11 09:47:16;;;;;;;;;;;;;;;;;;5044265;28;20108;-61
2023/03/11 09:49:43;;;;;;;;;;;;;;;;;;5044629;28;20005;-62
2023/03/11 09:52:10;;;;;;;;;;;;;;;;;;5048588;28;19997;-61
2023/03/11 09:54:37;;;;;;;;;;;;;;;;;;5048427;28;19994;-61
2023/03/11 09:57:04;;;;;;;;;;;;;;;;;;5050398;28;20014;-61
2023/03/11 09:59:31;;;;;;;;;;;;;;;;;;5051933;28;20004;-61
2023/03/11 10:01:58;;;;;;;;;;;;;;;;;;5043419;28;19994;-60
2023/03/11 10:04:25;;;;;;;;;;;;;;;;;;5048023;28;19993;-61
2023/03/11 10:06:52;;;;;;;;;;;;;;;;;;5051004;28;20536;-61
2023/03/11 10:09:19;;;;;;;;;;;;;;;;;;5034463;28;19998;-61
2023/03/11 10:11:46;;;;;;;;;;;;;;;;;;5041929;28;19997;-61
2023/03/11 10:14:13;;;;;;;;;;;;;;;;;;5044432;28;19998;-61
2023/03/11 10:16:40;;;;;;;;;;;;;;;;;;5041933;28;20382;-62
2023/03/11 10:19:07;;;;;;;;;;;;;;;;;;5040041;28;20009;-61
2023/03/11 10:21:34;;;;;;;;;;;;;;;;;;5038946;28;20110;-62
2023/03/11 10:24:02;;;;;;;;;;;;;;;;;;5041496;28;20096;-61
2023/03/11 10:26:31;;;;;;;;;;;;;;;;;;5039681;28;20002;-61
2023/03/11 10:28:58;;;;;;;;;;;;;;;;;;5039936;28;20021;-61
2023/03/11 10:31:25;;;;;;;;;;;;;;;;;;5038829;28;19998;-61
2023/03/11 10:33:51;;;;;;;;;;;;;;;;;;5045607;28;20005;-61
2023/03/11 10:36:22;;;;;;;;;;;;;;;;;;5031458;28;20383;-61
2023/03/11 10:38:50;;;;;;;;;;;;;;;;;;5034640;28;20022;-60
2023/03/11 10:41:18;;;;;;;;;;;;;;;;;;5039259;28;20017;-63
2023/03/11 10:43:44;;;;;;;;;;;;;;;;;;5044145;28;20455;-63
2023/03/11 10:46:11;;;;;;;;;;;;;;;;;;5035484;28;20476;-63
2023/03/11 10:48:38;;;;;;;;;;;;;;;;;;5038321;28;20013;-63
2023/03/11 10:51:05;;;;;;;;;;;;;;;;;;5041113;28;19998;-63
2023/03/11 10:53:32;;;;;;;;;;;;;;;;;;5046563;28;19998;-63
2023/03/11 10:55:59;;;;;;;;;;;;;;;;;;5047097;28;20020;-63
2023/03/11 10:58:26;;;;;;;;;;;;;;;;;;5041747;28;20068;-63
2023/03/11 11:00:53;;;;;;;;;;;;;;;;;;5049496;28;19998;-63
2023/03/11 11:03:20;;;;;;;;;;;;;;;;;;5052355;28;20002;-63
2023/03/11 11:05:47;;;;;;;;;;;;;;;;;;5050833;28;20525;-63
2023/03/11 11:08:14;;;;;;;;;;;;;;;;;;5051354;28;20026;-62
2023/03/11 11:10:41;;;;;;;;;;;;;;;;;;5041334;28;19998;-63
2023/03/11 11:13:08;;;;;;;;;;;;;;;;;;5041150;28;20002;-63
2023/03/11 11:15:35;;;;;;;;;;;;;;;;;;5047081;28;19998;-63
2023/03/11 11:18:02;;;;;;;;;;;;;;;;;;5052365;28;20021;-63
2023/03/11 11:20:29;;;;;;;;;;;;;;;;;;5052832;28;19998;-63
2023/03/11 11:22:56;;;;;;;;;;;;;;;;;;5037937;28;19998;-63
2023/03/11 11:25:23;;;;;;;;;;;;;;;;;;5042109;28;20373;-63
2023/03/11 11:27:50;;;;;;;;;;;;;;;;;;5047962;28;20482;-63
2023/03/11 11:30:17;;;;;;;;;;;;;;;;;;5040976;28;20000;-63
2023/03/11 11:32:44;;;;;;;;;;;;;;;;;;5042877;28;19994;-63
2023/03/11 11:35:10;;;;;;;;;;;;;;;;;;5049920;28;19994;-63
2023/03/11 11:37:37;;;;;;;;;;;;;;;;;;5049272;28;20014;-63
2023/03/11 11:40:09;;;;;;;;;;;;;;;;;;5051689;28;20481;-63
2023/03/11 11:42:36;;;;;;;;;;;;;;;;;;5045074;28;20363;-62
2023/03/11 11:45:03;;;;;;;;;;;;;;;;;;5047818;28;19998;-63
2023/03/11 11:47:30;;;;;;;;;;;;;;;;;;5042120;28;20024;-63
2023/03/11 11:49:57;;;;;;;;;;;;;;;;;;5040779;28;19994;-62
2023/03/11 11:52:24;;;;;;;;;;;;;;;;;;5048315;28;20414;-63
2023/03/11 11:54:51;;;;;;;;;;;;;;;;;;5047034;28;20485;-63
2023/03/11 11:57:18;;;;;;;;;;;;;;;;;;5051625;28;20486;-63
2023/03/11 11:59:45;;;;;;;;;;;;;;;;;;5048282;28;20004;-63
2023/03/11 12:02:12;;;;;;;;;;;;;;;;;;5049682;28;20312;-63
2023/03/11 12:04:39;;;;;;;;;;;;;;;;;;5044868;28;19997;-63
2023/03/11 12:07:06;;;;;;;;;;;;;;;;;;5046097;28;20001;-63
2023/03/11 12:09:32;;;;;;;;;;;;;;;;;;5042428;28;19998;-63
2023/03/11 12:11:59;;;;;;;;;;;;;;;;;;5035389;28;20002;-63
2023/03/11 12:14:26;;;;;;;;;;;;;;;;;;5034453;28;21374;-63
2023/03/11 12:16:53;;;;;;;;;;;;;;;;;;5036533;28;20012;-63
2023/03/11 12:19:20;;;;;;;;;;;;;;;;;;5037577;28;20001;-63
2023/03/11 12:21:47;;;;;;;;;;;;;;;;;;5037637;28;20508;-62
2023/03/11 12:24:14;;;;;;;;;;;;;;;;;;5049365;28;20002;-62
2023/03/11 12:26:41;;;;;;;;;;;;;;;;;;5049247;28;19997;-63
2023/03/11 12:29:08;;;;;;;;;;;;;;;;;;5054763;28;20018;-63
2023/03/11 12:31:37;;;;;;;;;;;;;;;;;;5056851;28;20005;-63
2023/03/11 12:34:04;;;;;;;;;;;;;;;;;;5058438;28;19997;-63
2023/03/11 12:36:32;;;;;;;;;;;;;;;;;;5056994;28;20502;-62
2023/03/11 12:38:59;;;;;;;;;;;;;;;;;;5055037;28;20010;-63
2023/03/11 12:41:27;;;;;;;;;;;;;;;;;;5055389;28;20020;-63
2023/03/11 12:43:53;;;;;;;;;;;;;;;;;;5055512;28;19993;-63
2023/03/11 12:46:20;;;;;;;;;;;;;;;;;;5052477;28;20004;-62
2023/03/11 12:48:48;;;;;;;;;;;;;;;;;;5043076;28;20399;-62
2023/03/11 12:51:15;;;;;;;;;;;;;;;;;;5046477;28;20002;-62
2023/03/11 12:53:42;;;;;;;;;;;;;;;;;;5054935;28;20005;-60
2023/03/11 12:56:09;;;;;;;;;;;;;;;;;;5042029;28;19993;-74
2023/03/11 12:58:36;;;;;;;;;;;;;;;;;;5045687;28;20024;-62
2023/03/11 13:01:04;;;;;;;;;;;;;;;;;;5051357;28;20016;-63
2023/03/11 13:03:31;;;;;;;;;;;;;;;;;;5055246;28;20455;-62
2023/03/11 13:05:58;;;;;;;;;;;;;;;;;;5052080;28;20030;-62
2023/03/11 13:08:25;;;;;;;;;;;;;;;;;;5048739;28;20479;-62
2023/03/11 13:10:52;;;;;;;;;;;;;;;;;;5050229;28;19993;-62
2023/03/11 13:13:19;;;;;;;;;;;;;;;;;;5046595;28;19994;-62
2023/03/11 13:15:45;;;;;;;;;;;;;;;;;;5056990;28;20005;-62
2023/03/11 13:18:12;;;;;;;;;;;;;;;;;;5054368;28;20022;-62
2023/03/11 13:20:40;;;;;;;;;;;;;;;;;;5057278;28;20362;-62
2023/03/11 13:23:07;;;;;;;;;;;;;;;;;;5056389;28;20040;-62
2023/03/11 13:25:34;;;;;;;;;;;;;;;;;;5056018;28;20095;-62
2023/03/11 13:28:00;;;;;;;;;;;;;;;;;;5052594;28;20356;-62
2023/03/11 13:30:27;;;;;;;;;;;;;;;;;;5055564;28;20000;-62
2023/03/11 13:32:55;;;;;;;;;;;;;;;;;;5054973;28;19994;-62
2023/03/11 13:35:22;;;;;;;;;;;;;;;;;;5048294;28;20024;-62
2023/03/11 13:37:48;;;;;;;;;;;;;;;;;;5041337;28;20017;-62
2023/03/11 13:40:15;;;;;;;;;;;;;;;;;;5052536;28;20096;-62
2023/03/11 13:42:42;;;;;;;;;;;;;;;;;;5053746;28;20101;-62
2023/03/11 13:45:09;;;;;;;;;;;;;;;;;;5051584;28;20418;-62
2023/03/11 13:47:36;;;;;;;;;;;;;;;;;;5049733;28;20509;-62
2023/03/11 13:50:03;;;;;;;;;;;;;;;;;;5042616;28;19998;-62
2023/03/11 13:52:30;;;;;;;;;;;;;;;;;;5046213;28;19997;-62
2023/03/11 13:54:57;;;;;;;;;;;;;;;;;;5033042;28;19997;-62
2023/03/11 13:57:24;;;;;;;;;;;;;;;;;;5051602;28;20029;-62
2023/03/11 13:59:51;;;;;;;;;;;;;;;;;;5048005;28;19994;-62
2023/03/11 14:02:18;;;;;;;;;;;;;;;;;;5034054;28;20005;-62
2023/03/11 14:04:45;;;;;;;;;;;;;;;;;;5033161;28;20470;-62
2023/03/11 14:07:12;;;;;;;;;;;;;;;;;;5037488;28;20014;-62
2023/03/11 14:09:39;;;;;;;;;;;;;;;;;;5050486;28;20015;-62
2023/03/11 14:12:06;;;;;;;;;;;;;;;;;;5050482;28;19993;-62
2023/03/11 14:14:33;;;;;;;;;;;;;;;;;;5053522;28;20008;-62
2023/03/11 14:17:00;;;;;;;;;;;;;;;;;;5043498;28;20382;-62
2023/03/11 14:19:27;;;;;;;;;;;;;;;;;;5041490;28;19998;-62
2023/03/11 14:21:54;;;;;;;;;;;;;;;;;;5044378;28;20366;-62
2023/03/11 14:24:21;;;;;;;;;;;;;;;;;;5040953;28;20005;-62
2023/03/11 14:26:48;;;;;;;;;;;;;;;;;;5042243;28;20133;-62
2023/03/11 14:29:15;;;;;;;;;;;;;;;;;;5044067;28;20379;-62
2023/03/11 14:31:43;;;;;;;;;;;;;;;;;;5043987;28;19998;-62
2023/03/11 14:34:10;;;;;;;;;;;;;;;;;;5050605;28;19994;-62
2023/03/11 14:36:36;;;;;;;;;;;;;;;;;;5047134;28;20477;-62
2023/03/11 14:39:03;;;;;;;;;;;;;;;;;;5040834;28;20020;-64
2023/03/11 14:41:30;;;;;;;;;;;;;;;;;;5043364;28;20103;-62
2023/03/11 14:43:57;;;;;;;;;;;;;;;;;;5040228;28;19994;-61
2023/03/11 14:46:24;;;;;;;;;;;;;;;;;;5051452;28;20001;-61
2023/03/11 14:48:51;;;;;;;;;;;;;;;;;;5045182;28;20021;-61
2023/03/11 14:51:18;;;;;;;;;;;;;;;;;;5048339;28;20041;-62
2023/03/11 14:53:45;;;;;;;;;;;;;;;;;;5043981;28;19997;-62
2023/03/11 14:56:12;;;;;;;;;;;;;;;;;;5044188;28;19994;-62
2023/03/11 14:58:39;;;;;;;;;;;;;;;;;;5052882;28;20017;-62
2023/03/11 15:01:06;;;;;;;;;;;;;;;;;;5052334;28;20366;-62
2023/03/11 15:03:33;;;;;;;;;;;;;;;;;;5051280;28;20390;-63
2023/03/11 15:06:01;;;;;;;;;;;;;;;;;;5045697;28;19994;-62
2023/03/11 15:08:29;;;;;;;;;;;;;;;;;;5033067;28;20116;-62
2023/03/11 15:10:56;;;;;;;;;;;;;;;;;;5048224;28;20067;-62
2023/03/11 15:13:22;;;;;;;;;;;;;;;;;;5048718;28;20391;-62
2023/03/11 15:15:49;;;;;;;;;;;;;;;;;;5050888;28;19998;-62
2023/03/11 15:18:16;;;;;;;;;;;;;;;;;;5048631;28;20018;-61
2023/03/11 15:20:43;;;;;;;;;;;;;;;;;;5046285;28;20008;-61
2023/03/11 15:23:10;;;;;;;;;;;;;;;;;;5049484;28;20000;-61
2023/03/11 15:25:37;;;;;;;;;;;;;;;;;;5037268;28;19997;-62
2023/03/11 15:28:04;;;;;;;;;;;;;;;;;;5047163;28;20017;-61
2023/03/11 15:30:31;;;;;;;;;;;;;;;;;;5047210;28;20001;-63
2023/03/11 15:32:58;;;;;;;;;;;;;;;;;;5042825;28;20000;-63
2023/03/11 15:35:25;;;;;;;;;;;;;;;;;;5042000;28;20005;-63
2023/03/11 15:37:52;;;;;;;;;;;;;;;;;;5044564;28;20014;-63
2023/03/11 15:40:19;;;;;;;;;;;;;;;;;;5043892;28;20298;-63
2023/03/11 15:42:46;;;;;;;;;;;;;;;;;;5044781;28;20375;-63
2023/03/11 15:45:13;;;;;;;;;;;;;;;;;;5048404;28;20002;-70
2023/03/11 15:47:40;;;;;;;;;;;;;;;;;;5044279;28;20021;-63
2023/03/11 15:50:07;;;;;;;;;;;;;;;;;;5048210;28;20002;-64
2023/03/11 15:52:34;;;;;;;;;;;;;;;;;;5040770;28;20017;-64
2023/03/11 15:55:01;;;;;;;;;;;;;;;;;;5042174;28;20447;-64
2023/03/11 15:57:27;;;;;;;;;;;;;;;;;;5049420;28;20017;-63
2023/03/11 15:59:54;;;;;;;;;;;;;;;;;;5048601;28;19994;-69
2023/03/11 16:02:21;;;;;;;;;;;;;;;;;;5048289;28;20001;-68
2023/03/11 16:04:48;;;;;;;;;;;;;;;;;;5049768;28;20029;-68
2023/03/11 16:07:15;;;;;;;;;;;;;;;;;;5044897;28;20022;-69
2023/03/11 16:09:42;;;;;;;;;;;;;;;;;;5043913;28;20017;-68
2023/03/11 16:12:09;;;;;;;;;;;;;;;;;;5048256;28;20443;-64
2023/03/11 16:14:36;;;;;;;;;;;;;;;;;;5050038;28;19997;-61
2023/03/11 16:17:03;;;;;;;;;;;;;;;;;;5048953;28;19998;-62
2023/03/11 16:19:30;;;;;;;;;;;;;;;;;;5049368;28;20477;-62
2023/03/11 16:21:57;;;;;;;;;;;;;;;;;;5047364;28;19993;-62
2023/03/11 16:24:24;;;;;;;;;;;;;;;;;;5044060;28;19998;-62
2023/03/11 16:26:51;;;;;;;;;;;;;;;;;;5047812;28;20016;-62
2023/03/11 16:29:18;;;;;;;;;;;;;;;;;;5050732;28;20124;-62
2023/03/11 16:31:45;;;;;;;;;;;;;;;;;;5038490;28;20455;-62
2023/03/11 16:34:12;;;;;;;;;;;;;;;;;;5044533;28;20000;-62
2023/03/11 16:36:39;;;;;;;;;;;;;;;;;;5043897;28;19993;-62
2023/03/11 16:39:06;;;;;;;;;;;;;;;;;;5044087;28;20009;-62
2023/03/11 16:41:33;;;;;;;;;;;;;;;;;;5046029;28;20359;-62
2023/03/11 16:44:00;;;;;;;;;;;;;;;;;;5047406;28;20470;-62